sensor_id;sensor_type;location;lat;lon;timestamp;temperature;humidity
23591;DHT22;11973;52.098;7.582;2023-03-09T04:47:08;1.60;99.90
23591;DHT22;11973;52.098;7.582;2023-03-09T04:49:34;1.70;99.90
23591;DHT22;11973;52.098;7.582;2023-03-09T04:52:02;1.60;99.90
23591;DHT22;11973;52.098;7.582;2023-03-09T04:54:28;1.60;99.90
23591;DHT22;11973;52.098;7.582;2023-03-09T04:56:54;1.60;99.90
23591;DHT22;11973;52.098;7.582;2023-03-09T04:59:23;1.60;99.90
23591;DHT22;11973;52.098;7.582;2023-03-09T05:01:54;1.70;99.90
23591;DHT22;11973;52.098;7.582;2023-03-09T05:04:24;1.60;99.90
23591;DHT22;11973;52.098;7.582;2023-03-09T05:06:53;1.60;99.90
23591;DHT22;11973;52.098;7.582;2023-03-09T05:09:20;1.60;99.90
23591;DHT22;11973;52.098;7.582;2023-03-09T05:11:47;1.60;99.90
23591;DHT22;11973;52.098;7.582;2023-03-09T05:14:19;1.60;99.90
23591;DHT22;11973;52.098;7.582;2023-03-09T05:16:48;1.70;99.90
23591;DHT22;11973;52.098;7.582;2023-03-09T05:19:14;1.60;99.90
23591;DHT22;11973;52.098;7.582;2023-03-09T05:21:41;1.60;99.90
23591;DHT22;11973;52.098;7.582;2023-03-09T05:24:10;1.60;99.90
23591;DHT22;11973;52.098;7.582;2023-03-09T05:26:36;1.60;99.90
23591;DHT22;11973;52.098;7.582;2023-03-09T05:29:04;1.90;99.90
23591;DHT22;11973;52.098;7.582;2023-03-09T05:31:33;1.70;99.90
23591;DHT22;11973;52.098;7.582;2023-03-09T05:33:58;1.70;99.90
23591;DHT22;11973;52.098;7.582;2023-03-09T05:36:25;1.70;99.90
23591;DHT22;11973;52.098;7.582;2023-03-09T05:38:54;1.70;99.90
23591;DHT22;11973;52.098;7.582;2023-03-09T05:41:20;1.70;99.90
23591;DHT22;11973;52.098;7.582;2023-03-09T05:43:50;1.70;99.90
23591;DHT22;11973;52.098;7.582;2023-03-09T05:46:17;1.70;99.90
23591;DHT22;11973;52.098;7.582;2023-03-09T05:48:45;1.70;99.90
23591;DHT22;11973;52.098;7.582;2023-03-09T05:51:11;1.70;99.90
23591;DHT22;11973;52.098;7.582;2023-03-09T05:53:38;1.70;99.90
23591;DHT22;11973;52.098;7.582;2023-03-09T05:56:05;1.70;99.90
23591;DHT22;11973;52.098;7.582;2023-03-09T05:58:33;1.70;99.90
23591;DHT22;11973;52.098;7.582;2023-03-09T06:01:00;1.70;99.90
23591;DHT22;11973;52.098;7.582;2023-03-09T06:03:28;1.70;99.90
23591;DHT22;11973;52.098;7.582;2023-03-09T06:06:02;1.70;99.90
23591;DHT22;11973;52.098;7.582;2023-03-09T06:08:29;1.70;99.90
23591;DHT22;11973;52.098;7.582;2023-03-09T06:10:58;1.70;99.90
23591;DHT22;11973;52.098;7.582;2023-03-09T06:13:27;1.70;99.90
23591;DHT22;11973;52.098;7.582;2023-03-09T06:15:53;1.70;99.90
23591;DHT22;11973;52.098;7.582;2023-03-09T06:18:19;1.70;99.90
23591;DHT22;11973;52.098;7.582;2023-03-09T06:20:48;1.70;99.90
23591;DHT22;11973;52.098;7.582;2023-03-09T06:23:14;2.00;99.90
23591;DHT22;11973;52.098;7.582;2023-03-09T06:25:40;1.90;99.90
23591;DHT22;11973;52.098;7.582;2023-03-09T06:28:08;1.80;99.90
23591;DHT22;11973;52.098;7.582;2023-03-09T06:30:40;1.80;99.90
23591;DHT22;11973;52.098;7.582;2023-03-09T06:33:07;1.80;99.90
23591;DHT22;11973;52.098;7.582;2023-03-09T06:35:36;1.80;99.90
23591;DHT22;11973;52.098;7.582;2023-03-09T06:38:05;1.90;99.90
23591;DHT22;11973;52.098;7.582;2023-03-09T06:40:32;1.90;99.90
23591;DHT22;11973;52.098;7.582;2023-03-09T06:42:58;1.90;99.90
23591;DHT22;11973;52.098;7.582;2023-03-09T06:45:24;2.10;99.90
23591;DHT22;11973;52.098;7.582;2023-03-09T06:47:57;2.00;99.90
23591;DHT22;11973;52.098;7.582;2023-03-09T06:50:26;2.00;99.90
23591;DHT22;11973;52.098;7.582;2023-03-09T06:52:53;2.00;99.90
23591;DHT22;11973;52.098;7.582;2023-03-09T06:55:19;2.00;99.90
23591;DHT22;11973;52.098;7.582;2023-03-09T06:57:50;2.00;99.90
23591;DHT22;11973;52.098;7.582;2023-03-09T07:00:18;2.00;99.90
23591;DHT22;11973;52.098;7.582;2023-03-09T07:02:46;2.00;99.90
23591;DHT22;11973;52.098;7.582;2023-03-09T07:05:12;2.00;99.90
23591;DHT22;11973;52.098;7.582;2023-03-09T07:07:38;2.00;99.90
23591;DHT22;11973;52.098;7.582;2023-03-09T07:10:07;2.10;99.90
23591;DHT22;11973;52.098;7.582;2023-03-09T07:12:33;2.20;99.90
23591;DHT22;11973;52.098;7.582;2023-03-09T07:14:59;2.40;99.90
23591;DHT22;11973;52.098;7.582;2023-03-09T07:17:25;2.30;99.90
23591;DHT22;11973;52.098;7.582;2023-03-09T07:19:51;2.30;99.90
23591;DHT22;11973;52.098;7.582;2023-03-09T07:22:22;2.30;99.90
23591;DHT22;11973;52.098;7.582;2023-03-09T07:24:48;2.60;99.90
23591;DHT22;11973;52.098;7.582;2023-03-09T07:27:14;2.40;99.90
23591;DHT22;11973;52.098;7.582;2023-03-09T07:29:40;2.50;99.90
23591;DHT22;11973;52.098;7.582;2023-03-09T07:32:07;2.60;99.90
23591;DHT22;11973;52.098;7.582;2023-03-09T07:34:33;2.50;99.90
23591;DHT22;11973;52.098;7.582;2023-03-09T07:37:00;2.50;99.90
23591;DHT22;11973;52.098;7.582;2023-03-09T07:39:26;2.50;99.90
23591;DHT22;11973;52.098;7.582;2023-03-09T07:41:51;2.70;99.90
23591;DHT22;11973;52.098;7.582;2023-03-09T07:44:17;2.60;99.90
23591;DHT22;11973;52.098;7.582;2023-03-09T07:46:43;2.70;99.90
23591;DHT22;11973;52.098;7.582;2023-03-09T07:49:09;2.70;99.90
23591;DHT22;11973;52.098;7.582;2023-03-09T07:51:35;2.70;99.90
23591;DHT22;11973;52.098;7.582;2023-03-09T07:54:05;2.80;99.90
23591;DHT22;11973;52.098;7.582;2023-03-09T07:56:31;2.70;99.90
23591;DHT22;11973;52.098;7.582;2023-03-09T07:58:57;2.70;99.90
23591;DHT22;11973;52.098;7.582;2023-03-09T08:01:22;2.70;99.90
23591;DHT22;11973;52.098;7.582;2023-03-09T08:03:49;2.80;99.90
23591;DHT22;11973;52.098;7.582;2023-03-09T08:06:15;2.80;99.90
23591;DHT22;11973;52.098;7.582;2023-03-09T08:08:41;2.80;99.90
23591;DHT22;11973;52.098;7.582;2023-03-09T08:11:07;2.80;99.90
23591;DHT22;11973;52.098;7.582;2023-03-09T08:13:33;2.90;99.90
23591;DHT22;11973;52.098;7.582;2023-03-09T08:16:05;2.90;99.90
23591;DHT22;11973;52.098;7.582;2023-03-09T08:18:31;2.90;99.90
23591;DHT22;11973;52.098;7.582;2023-03-09T08:21:08;2.90;99.90
23591;DHT22;11973;52.098;7.582;2023-03-09T08:23:35;2.90;99.90
23591;DHT22;11973;52.098;7.582;2023-03-09T08:26:03;3.00;99.90
23591;DHT22;11973;52.098;7.582;2023-03-09T08:28:30;3.10;99.90
23591;DHT22;11973;52.098;7.582;2023-03-09T08:30:56;3.30;99.90
23591;DHT22;11973;52.098;7.582;2023-03-09T08:33:21;3.20;99.90
23591;DHT22;11973;52.098;7.582;2023-03-09T08:35:47;3.20;99.90
23591;DHT22;11973;52.098;7.582;2023-03-09T08:38:13;3.30;99.90
23591;DHT22;11973;52.098;7.582;2023-03-09T08:40:38;3.40;99.90
23591;DHT22;11973;52.098;7.582;2023-03-09T08:43:05;3.40;99.90
23591;DHT22;11973;52.098;7.582;2023-03-09T08:45:31;3.40;99.90
23591;DHT22;11973;52.098;7.582;2023-03-09T08:47:57;3.50;99.90
23591;DHT22;11973;52.098;7.582;2023-03-09T08:50:23;3.60;99.90
23591;DHT22;11973;52.098;7.582;2023-03-09T08:52:49;3.60;99.90
23591;DHT22;11973;52.098;7.582;2023-03-09T08:55:15;3.70;99.90
23591;DHT22;11973;52.098;7.582;2023-03-09T08:57:41;3.70;99.90
23591;DHT22;11973;52.098;7.582;2023-03-09T09:00:08;3.70;99.90
23591;DHT22;11973;52.098;7.582;2023-03-09T09:02:36;3.80;99.90
23591;DHT22;11973;52.098;7.582;2023-03-09T09:05:03;3.90;99.90
23591;DHT22;11973;52.098;7.582;2023-03-09T09:07:29;3.90;99.90
23591;DHT22;11973;52.098;7.582;2023-03-09T09:09:55;3.90;99.90
23591;DHT22;11973;52.098;7.582;2023-03-09T09:12:21;4.00;99.90
23591;DHT22;11973;52.098;7.582;2023-03-09T09:14:47;4.30;99.90
23591;DHT22;11973;52.098;7.582;2023-03-09T09:17:13;4.10;99.90
23591;DHT22;11973;52.098;7.582;2023-03-09T09:19:40;4.20;99.90
23591;DHT22;11973;52.098;7.582;2023-03-09T09:22:06;4.20;99.90
23591;DHT22;11973;52.098;7.582;2023-03-09T09:24:34;4.30;99.90
23591;DHT22;11973;52.098;7.582;2023-03-09T09:27:06;4.40;99.90
23591;DHT22;11973;52.098;7.582;2023-03-09T09:29:35;4.40;99.90
23591;DHT22;11973;52.098;7.582;2023-03-09T09:32:02;4.50;99.90
23591;DHT22;11973;52.098;7.582;2023-03-09T09:34:30;4.60;99.90
23591;DHT22;11973;52.098;7.582;2023-03-09T09:36:59;4.80;99.90
23591;DHT22;11973;52.098;7.582;2023-03-09T09:39:28;4.70;99.90
23591;DHT22;11973;52.098;7.582;2023-03-09T09:41:58;4.80;99.90
23591;DHT22;11973;52.098;7.582;2023-03-09T09:44:29;4.90;99.90
23591;DHT22;11973;52.098;7.582;2023-03-09T09:46:58;5.10;99.90
23591;DHT22;11973;52.098;7.582;2023-03-09T09:49:27;5.00;99.90
23591;DHT22;11973;52.098;7.582;2023-03-09T09:55:19;5.10;99.90
23591;DHT22;11973;52.098;7.582;2023-03-09T09:58:00;5.10;99.90
23591;DHT22;11973;52.098;7.582;2023-03-09T10:00:36;5.10;99.90
23591;DHT22;11973;52.098;7.582;2023-03-09T10:03:10;5.00;99.90
23591;DHT22;11973;52.098;7.582;2023-03-09T10:05:57;5.00;99.90
23591;DHT22;11973;52.098;7.582;2023-03-09T10:08:33;5.00;99.90
23591;DHT22;11973;52.098;7.582;2023-03-09T10:14:28;4.90;99.90
23591;DHT22;11973;52.098;7.582;2023-03-09T10:17:06;4.90;99.90
23591;DHT22;11973;52.098;7.582;2023-03-09T10:19:37;4.90;99.90
23591;DHT22;11973;52.098;7.582;2023-03-09T10:29:54;5.00;99.90
23591;DHT22;11973;52.098;7.582;2023-03-09T10:37:47;4.80;99.90
23591;DHT22;11973;52.098;7.582;2023-03-09T10:40:27;4.80;99.90
23591;DHT22;11973;52.098;7.582;2023-03-09T10:42:58;4.80;99.90
23591;DHT22;11973;52.098;7.582;2023-03-09T10:45:31;5.00;99.90
23591;DHT22;11973;52.098;7.582;2023-03-09T10:48:01;4.80;99.90
23591;DHT22;11973;52.098;7.582;2023-03-09T10:50:32;5.00;99.90
23591;DHT22;11973;52.098;7.582;2023-03-09T10:56:43;5.00;99.90
23591;DHT22;11973;52.098;7.582;2023-03-09T10:59:17;5.10;99.90
23591;DHT22;11973;52.098;7.582;2023-03-09T11:01:46;5.30;99.90
23591;DHT22;11973;52.098;7.582;2023-03-09T11:06:59;5.40;99.90
23591;DHT22;11973;52.098;7.582;2023-03-09T11:14:47;5.60;99.90
23591;DHT22;11973;52.098;7.582;2023-03-09T11:17:39;5.70;99.90
23591;DHT22;11973;52.098;7.582;2023-03-09T11:22:44;5.80;99.90
23591;DHT22;11973;52.098;7.582;2023-03-09T11:28:46;5.80;99.90
23591;DHT22;11973;52.098;7.582;2023-03-09T11:31:13;5.70;99.90
23591;DHT22;11973;52.098;7.582;2023-03-09T11:33:39;5.70;99.90
23591;DHT22;11973;52.098;7.582;2023-03-09T11:36:11;5.80;99.90
23591;DHT22;11973;52.098;7.582;2023-03-09T11:38:40;5.60;99.90
23591;DHT22;11973;52.098;7.582;2023-03-09T11:41:15;5.60;99.90
23591;DHT22;11973;52.098;7.582;2023-03-09T11:43:44;5.60;99.90
23591;DHT22;11973;52.098;7.582;2023-03-09T11:46:14;5.60;99.90
23591;DHT22;11973;52.098;7.582;2023-03-09T11:48:44;5.70;99.90
23591;DHT22;11973;52.098;7.582;2023-03-09T11:51:28;5.70;99.90
23591;DHT22;11973;52.098;7.582;2023-03-09T11:54:08;5.90;99.90
23591;DHT22;11973;52.098;7.582;2023-03-09T11:56:39;5.80;99.90
23591;DHT22;11973;52.098;7.582;2023-03-09T12:01:48;5.90;99.90
23591;DHT22;11973;52.098;7.582;2023-03-09T12:04:16;5.90;99.90
23591;DHT22;11973;52.098;7.582;2023-03-09T12:07:02;5.90;99.90
23591;DHT22;11973;52.098;7.582;2023-03-09T12:15:12;6.10;99.90
23591;DHT22;11973;52.098;7.582;2023-03-09T12:17:50;6.10;99.90
23591;DHT22;11973;52.098;7.582;2023-03-09T12:20:38;6.20;99.90
23591;DHT22;11973;52.098;7.582;2023-03-09T12:28:33;6.20;99.90
23591;DHT22;11973;52.098;7.582;2023-03-09T12:31:00;6.20;99.90
23591;DHT22;11973;52.098;7.582;2023-03-09T12:36:26;6.20;99.90
23591;DHT22;11973;52.098;7.582;2023-03-09T12:39:30;6.20;99.90
23591;DHT22;11973;52.098;7.582;2023-03-09T12:42:02;6.20;99.90
23591;DHT22;11973;52.098;7.582;2023-03-09T12:49:47;6.10;99.90
23591;DHT22;11973;52.098;7.582;2023-03-09T12:54:56;5.90;99.90
23591;DHT22;11973;52.098;7.582;2023-03-09T12:57:23;5.90;99.90
23591;DHT22;11973;52.098;7.582;2023-03-09T12:59:49;5.90;99.90
23591;DHT22;11973;52.098;7.582;2023-03-09T13:02:30;5.90;99.90
23591;DHT22;11973;52.098;7.582;2023-03-09T13:05:30;5.90;99.90
23591;DHT22;11973;52.098;7.582;2023-03-09T13:08:03;5.90;99.90
23591;DHT22;11973;52.098;7.582;2023-03-09T13:10:34;5.90;99.90
23591;DHT22;11973;52.098;7.582;2023-03-09T13:13:39;5.90;99.90
23591;DHT22;11973;52.098;7.582;2023-03-09T13:27:05;6.00;99.90
23591;DHT22;11973;52.098;7.582;2023-03-09T13:29:33;6.00;99.90
23591;DHT22;11973;52.098;7.582;2023-03-09T13:32:04;6.00;99.90
23591;DHT22;11973;52.098;7.582;2023-03-09T13:34:34;5.90;99.90
23591;DHT22;11973;52.098;7.582;2023-03-09T13:37:07;6.10;99.90
23591;DHT22;11973;52.098;7.582;2023-03-09T13:39:38;6.00;99.90
23591;DHT22;11973;52.098;7.582;2023-03-09T13:42:05;5.80;99.90
23591;DHT22;11973;52.098;7.582;2023-03-09T13:44:31;5.80;99.90
23591;DHT22;11973;52.098;7.582;2023-03-09T13:46:58;5.80;99.90
23591;DHT22;11973;52.098;7.582;2023-03-09T13:49:33;5.90;99.90
23591;DHT22;11973;52.098;7.582;2023-03-09T13:52:12;5.80;99.90
23591;DHT22;11973;52.098;7.582;2023-03-09T13:54:49;5.70;99.90
23591;DHT22;11973;52.098;7.582;2023-03-09T13:57:18;5.70;99.90
23591;DHT22;11973;52.098;7.582;2023-03-09T13:59:54;5.80;99.90
23591;DHT22;11973;52.098;7.582;2023-03-09T14:02:22;5.70;99.90
23591;DHT22;11973;52.098;7.582;2023-03-09T14:05:03;5.60;99.90
23591;DHT22;11973;52.098;7.582;2023-03-09T14:07:51;5.60;99.90
23591;DHT22;11973;52.098;7.582;2023-03-09T14:10:29;5.60;99.90
23591;DHT22;11973;52.098;7.582;2023-03-09T14:15:27;5.60;99.90
23591;DHT22;11973;52.098;7.582;2023-03-09T14:17:53;5.50;99.90
23591;DHT22;11973;52.098;7.582;2023-03-09T14:20:23;5.50;99.90
23591;DHT22;11973;52.098;7.582;2023-03-09T14:22:50;5.50;99.90
23591;DHT22;11973;52.098;7.582;2023-03-09T14:25:29;5.60;99.90
23591;DHT22;11973;52.098;7.582;2023-03-09T14:27:55;5.40;99.90
23591;DHT22;11973;52.098;7.582;2023-03-09T14:30:31;5.30;99.90
23591;DHT22;11973;52.098;7.582;2023-03-09T14:33:27;5.30;99.90
23591;DHT22;11973;52.098;7.582;2023-03-09T14:36:16;5.20;99.90
23591;DHT22;11973;52.098;7.582;2023-03-09T14:39:00;5.10;99.90
23591;DHT22;11973;52.098;7.582;2023-03-09T14:41:28;5.10;99.90
23591;DHT22;11973;52.098;7.582;2023-03-09T14:43:55;5.10;99.90
23591;DHT22;11973;52.098;7.582;2023-03-09T14:48:50;4.90;99.90
23591;DHT22;11973;52.098;7.582;2023-03-09T14:51:27;4.90;99.90
23591;DHT22;11973;52.098;7.582;2023-03-09T14:53:54;4.80;99.90
23591;DHT22;11973;52.098;7.582;2023-03-09T14:56:21;4.80;99.90
23591;DHT22;11973;52.098;7.582;2023-03-09T14:58:46;4.70;99.90
23591;DHT22;11973;52.098;7.582;2023-03-09T15:01:12;4.70;99.90
23591;DHT22;11973;52.098;7.582;2023-03-09T15:03:38;4.60;99.90
23591;DHT22;11973;52.098;7.582;2023-03-09T15:06:04;4.80;99.90
23591;DHT22;11973;52.098;7.582;2023-03-09T15:08:31;4.60;99.90
23591;DHT22;11973;52.098;7.582;2023-03-09T15:10:57;4.60;99.90
23591;DHT22;11973;52.098;7.582;2023-03-09T15:13:24;4.80;99.90
23591;DHT22;11973;52.098;7.582;2023-03-09T15:15:49;4.50;99.90
23591;DHT22;11973;52.098;7.582;2023-03-09T15:18:15;4.50;99.90
23591;DHT22;11973;52.098;7.582;2023-03-09T15:20:41;4.50;99.90
23591;DHT22;11973;52.098;7.582;2023-03-09T15:23:07;4.40;99.90
23591;DHT22;11973;52.098;7.582;2023-03-09T15:25:32;4.40;99.90
23591;DHT22;11973;52.098;7.582;2023-03-09T15:27:58;4.50;99.90
23591;DHT22;11973;52.098;7.582;2023-03-09T15:30:24;4.30;99.90
23591;DHT22;11973;52.098;7.582;2023-03-09T15:32:52;4.20;99.90
23591;DHT22;11973;52.098;7.582;2023-03-09T15:35:20;4.40;99.90
23591;DHT22;11973;52.098;7.582;2023-03-09T15:37:46;4.20;99.90
23591;DHT22;11973;52.098;7.582;2023-03-09T15:40:14;4.10;99.90
23591;DHT22;11973;52.098;7.582;2023-03-09T15:42:42;4.10;99.90
23591;DHT22;11973;52.098;7.582;2023-03-09T15:45:11;4.20;99.90
23591;DHT22;11973;52.098;7.582;2023-03-09T15:47:37;4.00;99.90
23591;DHT22;11973;52.098;7.582;2023-03-09T15:50:04;3.90;99.90
23591;DHT22;11973;52.098;7.582;2023-03-09T15:52:32;3.90;99.90
23591;DHT22;11973;52.098;7.582;2023-03-09T15:54:58;3.80;99.90
23591;DHT22;11973;52.098;7.582;2023-03-09T15:57:24;3.80;99.90
23591;DHT22;11973;52.098;7.582;2023-03-09T15:59:50;3.80;99.90
23591;DHT22;11973;52.098;7.582;2023-03-09T16:02:17;3.70;99.90
23591;DHT22;11973;52.098;7.582;2023-03-09T16:04:43;3.80;99.90
23591;DHT22;11973;52.098;7.582;2023-03-09T16:07:09;3.60;99.90
23591;DHT22;11973;52.098;7.582;2023-03-09T16:09:35;3.60;99.90
23591;DHT22;11973;52.098;7.582;2023-03-09T16:12:01;3.60;99.90
23591;DHT22;11973;52.098;7.582;2023-03-09T16:14:26;3.50;99.90
23591;DHT22;11973;52.098;7.582;2023-03-09T16:16:53;3.50;99.90
23591;DHT22;11973;52.098;7.582;2023-03-09T16:19:18;3.50;99.90
23591;DHT22;11973;52.098;7.582;2023-03-09T16:21:44;3.70;99.90
23591;DHT22;11973;52.098;7.582;2023-03-09T16:24:11;3.50;99.90
23591;DHT22;11973;52.098;7.582;2023-03-09T16:26:37;3.70;99.90
23591;DHT22;11973;52.098;7.582;2023-03-09T16:29:03;3.50;99.90
23591;DHT22;11973;52.098;7.582;2023-03-09T16:31:29;3.60;99.90
23591;DHT22;11973;52.098;7.582;2023-03-09T16:33:55;3.40;99.90
23591;DHT22;11973;52.098;7.582;2023-03-09T16:36:21;3.60;99.90
23591;DHT22;11973;52.098;7.582;2023-03-09T16:38:48;3.40;99.90
23591;DHT22;11973;52.098;7.582;2023-03-09T16:41:16;3.40;99.90
23591;DHT22;11973;52.098;7.582;2023-03-09T16:43:42;3.30;99.90
23591;DHT22;11973;52.098;7.582;2023-03-09T16:46:18;3.30;99.90
23591;DHT22;11973;52.098;7.582;2023-03-09T16:48:44;3.50;99.90
23591;DHT22;11973;52.098;7.582;2023-03-09T16:51:11;3.30;99.90
23591;DHT22;11973;52.098;7.582;2023-03-09T16:53:37;3.30;99.90
23591;DHT22;11973;52.098;7.582;2023-03-09T16:56:07;3.30;99.90
23591;DHT22;11973;52.098;7.582;2023-03-09T16:58:39;3.50;99.90
23591;DHT22;11973;52.098;7.582;2023-03-09T17:01:16;3.40;99.90
23591;DHT22;11973;52.098;7.582;2023-03-09T17:03:45;3.20;99.90
23591;DHT22;11973;52.098;7.582;2023-03-09T17:06:16;3.10;99.90
23591;DHT22;11973;52.098;7.582;2023-03-09T17:08:42;3.10;99.90
23591;DHT22;11973;52.098;7.582;2023-03-09T17:11:12;3.10;99.90
23591;DHT22;11973;52.098;7.582;2023-03-09T17:13:42;3.00;99.90
23591;DHT22;11973;52.098;7.582;2023-03-09T17:16:11;3.00;99.90
23591;DHT22;11973;52.098;7.582;2023-03-09T17:18:37;3.00;99.90
23591;DHT22;11973;52.098;7.582;2023-03-09T17:21:03;3.00;99.90
23591;DHT22;11973;52.098;7.582;2023-03-09T17:23:29;3.00;99.90
23591;DHT22;11973;52.098;7.582;2023-03-09T17:26:00;2.90;99.90
23591;DHT22;11973;52.098;7.582;2023-03-09T17:28:26;2.90;99.90
23591;DHT22;11973;52.098;7.582;2023-03-09T17:30:52;2.90;99.90
23591;DHT22;11973;52.098;7.582;2023-03-09T17:33:22;2.90;99.90
23591;DHT22;11973;52.098;7.582;2023-03-09T17:35:48;2.90;99.90
23591;DHT22;11973;52.098;7.582;2023-03-09T17:38:14;2.90;99.90
23591;DHT22;11973;52.098;7.582;2023-03-09T17:40:42;3.10;99.90
23591;DHT22;11973;52.098;7.582;2023-03-09T17:43:10;3.10;99.90
23591;DHT22;11973;52.098;7.582;2023-03-09T17:45:37;3.00;99.90
23591;DHT22;11973;52.098;7.582;2023-03-09T17:48:03;2.80;99.90
23591;DHT22;11973;52.098;7.582;2023-03-09T17:50:29;2.80;99.90
23591;DHT22;11973;52.098;7.582;2023-03-09T17:52:54;2.80;99.90
23591;DHT22;11973;52.098;7.582;2023-03-09T17:55:20;2.80;99.90
23591;DHT22;11973;52.098;7.582;2023-03-09T17:57:46;2.80;99.90
23591;DHT22;11973;52.098;7.582;2023-03-09T18:00:12;2.80;99.90
23591;DHT22;11973;52.098;7.582;2023-03-09T18:02:38;2.80;99.90
23591;DHT22;11973;52.098;7.582;2023-03-09T18:05:07;2.80;99.90
23591;DHT22;11973;52.098;7.582;2023-03-09T18:07:33;2.80;99.90
23591;DHT22;11973;52.098;7.582;2023-03-09T18:09:59;2.80;99.90
23591;DHT22;11973;52.098;7.582;2023-03-09T18:12:26;2.80;99.90
23591;DHT22;11973;52.098;7.582;2023-03-09T18:14:55;2.80;99.90
23591;DHT22;11973;52.098;7.582;2023-03-09T18:17:21;2.80;99.90
23591;DHT22;11973;52.098;7.582;2023-03-09T18:19:47;2.80;99.90
23591;DHT22;11973;52.098;7.582;2023-03-09T18:22:14;2.80;99.90
23591;DHT22;11973;52.098;7.582;2023-03-09T18:24:40;2.80;99.90
23591;DHT22;11973;52.098;7.582;2023-03-09T18:27:06;2.80;99.90
23591;DHT22;11973;52.098;7.582;2023-03-09T18:29:31;2.80;99.90
23591;DHT22;11973;52.098;7.582;2023-03-09T18:31:58;2.80;99.90
23591;DHT22;11973;52.098;7.582;2023-03-09T18:34:24;2.80;99.90
23591;DHT22;11973;52.098;7.582;2023-03-09T18:36:49;2.80;99.90
23591;DHT22;11973;52.098;7.582;2023-03-09T18:39:15;2.80;99.90
23591;DHT22;11973;52.098;7.582;2023-03-09T18:41:41;2.80;99.90
23591;DHT22;11973;52.098;7.582;2023-03-09T18:44:07;3.00;99.90
23591;DHT22;11973;52.098;7.582;2023-03-09T18:46:33;2.80;99.90
23591;DHT22;11973;52.098;7.582;2023-03-09T18:48:59;2.70;99.90
23591;DHT22;11973;52.098;7.582;2023-03-09T18:51:27;2.80;99.90
23591;DHT22;11973;52.098;7.582;2023-03-09T18:53:53;2.70;99.90
23591;DHT22;11973;52.098;7.582;2023-03-09T18:56:19;2.70;99.90
23591;DHT22;11973;52.098;7.582;2023-03-09T18:58:45;2.70;99.90
23591;DHT22;11973;52.098;7.582;2023-03-09T19:01:13;2.70;99.90
23591;DHT22;11973;52.098;7.582;2023-03-09T19:03:39;2.70;99.90
23591;DHT22;11973;52.098;7.582;2023-03-09T19:06:09;2.70;99.90
23591;DHT22;11973;52.098;7.582;2023-03-09T19:08:35;2.80;99.90
23591;DHT22;11973;52.098;7.582;2023-03-09T19:11:12;2.70;99.90
23591;DHT22;11973;52.098;7.582;2023-03-09T19:13:37;2.70;99.90
23591;DHT22;11973;52.098;7.582;2023-03-09T19:16:05;2.70;99.90
23591;DHT22;11973;52.098;7.582;2023-03-09T19:18:31;2.70;99.90
23591;DHT22;11973;52.098;7.582;2023-03-09T19:20:57;2.70;99.90
23591;DHT22;11973;52.098;7.582;2023-03-09T19:23:23;2.70;99.90
23591;DHT22;11973;52.098;7.582;2023-03-09T19:25:55;2.70;99.90
23591;DHT22;11973;52.098;7.582;2023-03-09T19:28:22;2.70;99.90
23591;DHT22;11973;52.098;7.582;2023-03-09T19:30:50;2.70;99.90
23591;DHT22;11973;52.098;7.582;2023-03-09T19:33:16;2.70;99.90
23591;DHT22;11973;52.098;7.582;2023-03-09T19:35:42;2.70;99.90
23591;DHT22;11973;52.098;7.582;2023-03-09T19:38:08;2.70;99.90
23591;DHT22;11973;52.098;7.582;2023-03-09T19:40:33;2.70;99.90
23591;DHT22;11973;52.098;7.582;2023-03-09T19:43:00;2.70;99.90
23591;DHT22;11973;52.098;7.582;2023-03-09T19:45:26;2.80;99.90
23591;DHT22;11973;52.098;7.582;2023-03-09T19:47:51;2.70;99.90
23591;DHT22;11973;52.098;7.582;2023-03-09T19:50:17;2.90;99.90
23591;DHT22;11973;52.098;7.582;2023-03-09T19:52:43;2.70;99.90
23591;DHT22;11973;52.098;7.582;2023-03-09T19:55:09;2.80;99.90
23591;DHT22;11973;52.098;7.582;2023-03-09T19:57:34;2.70;99.90
23591;DHT22;11973;52.098;7.582;2023-03-09T20:00:04;2.70;99.90
23591;DHT22;11973;52.098;7.582;2023-03-09T20:02:31;2.70;99.90
23591;DHT22;11973;52.098;7.582;2023-03-09T20:04:56;2.70;99.90
23591;DHT22;11973;52.098;7.582;2023-03-09T20:07:22;2.80;99.90
23591;DHT22;11973;52.098;7.582;2023-03-09T20:09:48;3.00;99.90
23591;DHT22;11973;52.098;7.582;2023-03-09T20:12:14;2.80;99.90
23591;DHT22;11973;52.098;7.582;2023-03-09T20:14:39;2.80;99.90
23591;DHT22;11973;52.098;7.582;2023-03-09T20:17:05;2.80;99.90
23591;DHT22;11973;52.098;7.582;2023-03-09T20:19:31;2.80;99.90
23591;DHT22;11973;52.098;7.582;2023-03-09T20:21:57;2.90;99.90
23591;DHT22;11973;52.098;7.582;2023-03-09T20:24:23;2.90;99.90
23591;DHT22;11973;52.098;7.582;2023-03-09T20:26:49;2.80;99.90
23591;DHT22;11973;52.098;7.582;2023-03-09T20:29:17;2.80;99.90
23591;DHT22;11973;52.098;7.582;2023-03-09T20:31:49;2.90;99.90
23591;DHT22;11973;52.098;7.582;2023-03-09T20:34:16;2.90;99.90
23591;DHT22;11973;52.098;7.582;2023-03-09T20:36:42;2.80;99.90
23591;DHT22;11973;52.098;7.582;2023-03-09T20:39:09;2.80;99.90
23591;DHT22;11973;52.098;7.582;2023-03-09T20:41:36;3.00;99.90
23591;DHT22;11973;52.098;7.582;2023-03-09T20:44:02;2.80;99.90
23591;DHT22;11973;52.098;7.582;2023-03-09T20:46:29;2.80;99.90
23591;DHT22;11973;52.098;7.582;2023-03-09T20:48:57;2.80;99.90
23591;DHT22;11973;52.098;7.582;2023-03-09T20:51:27;2.80;99.90
23591;DHT22;11973;52.098;7.582;2023-03-09T20:53:54;2.80;99.90
23591;DHT22;11973;52.098;7.582;2023-03-09T20:56:21;3.00;99.90
23591;DHT22;11973;52.098;7.582;2023-03-09T20:58:47;2.80;99.90
23591;DHT22;11973;52.098;7.582;2023-03-09T21:01:19;2.80;99.90
23591;DHT22;11973;52.098;7.582;2023-03-09T21:03:46;2.80;99.90
23591;DHT22;11973;52.098;7.582;2023-03-09T21:06:13;3.00;99.90
23591;DHT22;11973;52.098;7.582;2023-03-09T21:08:39;2.80;99.90
23591;DHT22;11973;52.098;7.582;2023-03-09T21:11:07;2.80;99.90
23591;DHT22;11973;52.098;7.582;2023-03-09T21:13:34;2.80;99.90
23591;DHT22;11973;52.098;7.582;2023-03-09T21:16:04;2.90;99.90
23591;DHT22;11973;52.098;7.582;2023-03-09T21:18:30;3.00;99.90
23591;DHT22;11973;52.098;7.582;2023-03-09T21:20:56;2.80;99.90
23591;DHT22;11973;52.098;7.582;2023-03-09T21:23:22;2.80;99.90
23591;DHT22;11973;52.098;7.582;2023-03-09T21:25:48;2.80;99.90
23591;DHT22;11973;52.098;7.582;2023-03-09T21:28:14;2.80;99.90
23591;DHT22;11973;52.098;7.582;2023-03-09T21:30:39;2.80;99.90
23591;DHT22;11973;52.098;7.582;2023-03-09T21:33:05;3.10;99.90
23591;DHT22;11973;52.098;7.582;2023-03-09T21:35:31;2.80;99.90
23591;DHT22;11973;52.098;7.582;2023-03-09T21:37:56;2.90;99.90
23591;DHT22;11973;52.098;7.582;2023-03-09T21:40:22;2.80;99.90
23591;DHT22;11973;52.098;7.582;2023-03-09T21:42:48;2.90;99.90
23591;DHT22;11973;52.098;7.582;2023-03-09T21:45:14;2.90;99.90
23591;DHT22;11973;52.098;7.582;2023-03-09T21:47:40;3.10;99.90
23591;DHT22;11973;52.098;7.582;2023-03-09T21:50:06;2.90;99.90
23591;DHT22;11973;52.098;7.582;2023-03-09T21:52:33;2.90;99.90
23591;DHT22;11973;52.098;7.582;2023-03-09T21:54:59;2.90;99.90
23591;DHT22;11973;52.098;7.582;2023-03-09T21:57:24;2.90;99.90